sensor_id;sensor_type;location;lat;lon;timestamp;temperature;humidity
12688;DHT22;6408;59.388;17.798;2023-02-11T00:01:27;1.70;99.90
12688;DHT22;6408;59.388;17.798;2023-02-11T00:03:56;1.70;99.90
12688;DHT22;6408;59.388;17.798;2023-02-11T00:06:27;1.70;99.90
12688;DHT22;6408;59.388;17.798;2023-02-11T00:08:56;1.70;99.90
12688;DHT22;6408;59.388;17.798;2023-02-11T00:11:25;1.70;99.90
12688;DHT22;6408;59.388;17.798;2023-02-11T00:13:55;1.60;99.90
12688;DHT22;6408;59.388;17.798;2023-02-11T00:16:23;1.70;99.90
12688;DHT22;6408;59.388;17.798;2023-02-11T00:18:50;1.70;99.90
12688;DHT22;6408;59.388;17.798;2023-02-11T00:21:21;1.60;99.90
12688;DHT22;6408;59.388;17.798;2023-02-11T00:23:51;1.60;99.90
12688;DHT22;6408;59.388;17.798;2023-02-11T00:26:21;1.60;99.90
12688;DHT22;6408;59.388;17.798;2023-02-11T00:28:50;1.60;99.90
12688;DHT22;6408;59.388;17.798;2023-02-11T00:31:19;1.60;99.90
12688;DHT22;6408;59.388;17.798;2023-02-11T00:33:48;1.70;99.90
12688;DHT22;6408;59.388;17.798;2023-02-11T00:36:18;1.70;99.90
12688;DHT22;6408;59.388;17.798;2023-02-11T00:38:47;1.70;99.90
12688;DHT22;6408;59.388;17.798;2023-02-11T00:41:18;1.70;99.90
12688;DHT22;6408;59.388;17.798;2023-02-11T00:43:46;1.70;99.90
12688;DHT22;6408;59.388;17.798;2023-02-11T00:46:14;1.70;99.90
12688;DHT22;6408;59.388;17.798;2023-02-11T00:48:42;1.70;99.90
12688;DHT22;6408;59.388;17.798;2023-02-11T00:51:10;1.70;99.90
12688;DHT22;6408;59.388;17.798;2023-02-11T00:53:38;1.70;99.90
12688;DHT22;6408;59.388;17.798;2023-02-11T00:56:06;1.70;99.90
12688;DHT22;6408;59.388;17.798;2023-02-11T00:58:37;1.70;99.90
12688;DHT22;6408;59.388;17.798;2023-02-11T01:01:04;1.80;99.90
12688;DHT22;6408;59.388;17.798;2023-02-11T01:03:32;1.70;99.90
12688;DHT22;6408;59.388;17.798;2023-02-11T01:06:00;1.70;99.90
12688;DHT22;6408;59.388;17.798;2023-02-11T01:08:27;1.70;99.90
12688;DHT22;6408;59.388;17.798;2023-02-11T01:10:56;1.80;99.90
12688;DHT22;6408;59.388;17.798;2023-02-11T01:13:25;1.80;99.90
12688;DHT22;6408;59.388;17.798;2023-02-11T01:15:56;1.80;99.90
12688;DHT22;6408;59.388;17.798;2023-02-11T01:18:27;1.80;99.90
12688;DHT22;6408;59.388;17.798;2023-02-11T01:20:55;1.80;99.90
12688;DHT22;6408;59.388;17.798;2023-02-11T01:23:28;1.80;99.90
12688;DHT22;6408;59.388;17.798;2023-02-11T01:25:56;1.90;99.90
12688;DHT22;6408;59.388;17.798;2023-02-11T01:28:26;2.00;99.90
12688;DHT22;6408;59.388;17.798;2023-02-11T01:30:58;2.00;99.90
12688;DHT22;6408;59.388;17.798;2023-02-11T01:33:26;2.00;99.90
12688;DHT22;6408;59.388;17.798;2023-02-11T01:35:58;1.90;99.90
12688;DHT22;6408;59.388;17.798;2023-02-11T01:38:27;1.90;99.90
12688;DHT22;6408;59.388;17.798;2023-02-11T01:40:57;1.90;99.90
12688;DHT22;6408;59.388;17.798;2023-02-11T01:43:28;1.80;99.90
12688;DHT22;6408;59.388;17.798;2023-02-11T01:46:16;1.80;99.90
12688;DHT22;6408;59.388;17.798;2023-02-11T01:48:48;1.80;99.90
12688;DHT22;6408;59.388;17.798;2023-02-11T01:51:20;1.90;99.90
12688;DHT22;6408;59.388;17.798;2023-02-11T01:53:49;1.90;99.90
12688;DHT22;6408;59.388;17.798;2023-02-11T01:56:36;1.90;99.90
12688;DHT22;6408;59.388;17.798;2023-02-11T01:59:28;2.00;99.90
12688;DHT22;6408;59.388;17.798;2023-02-11T02:02:02;2.00;99.90
12688;DHT22;6408;59.388;17.798;2023-02-11T02:04:37;2.00;99.90
12688;DHT22;6408;59.388;17.798;2023-02-11T02:07:11;2.00;99.90
12688;DHT22;6408;59.388;17.798;2023-02-11T02:09:43;2.00;99.90
12688;DHT22;6408;59.388;17.798;2023-02-11T02:12:15;2.10;99.90
12688;DHT22;6408;59.388;17.798;2023-02-11T02:14:43;2.00;99.90
12688;DHT22;6408;59.388;17.798;2023-02-11T02:17:23;2.00;99.90
12688;DHT22;6408;59.388;17.798;2023-02-11T02:23:17;2.10;99.90
12688;DHT22;6408;59.388;17.798;2023-02-11T02:29:16;2.20;99.90
12688;DHT22;6408;59.388;17.798;2023-02-11T02:31:57;2.10;99.90
12688;DHT22;6408;59.388;17.798;2023-02-11T02:34:33;2.20;99.90
12688;DHT22;6408;59.388;17.798;2023-02-11T02:37:08;2.20;99.90
12688;DHT22;6408;59.388;17.798;2023-02-11T02:39:38;2.20;99.90
12688;DHT22;6408;59.388;17.798;2023-02-11T02:42:07;2.20;99.90
12688;DHT22;6408;59.388;17.798;2023-02-11T02:44:35;2.20;99.90
12688;DHT22;6408;59.388;17.798;2023-02-11T02:47:03;2.20;99.90
12688;DHT22;6408;59.388;17.798;2023-02-11T02:49:33;2.20;99.90
12688;DHT22;6408;59.388;17.798;2023-02-11T02:52:18;2.20;99.90
12688;DHT22;6408;59.388;17.798;2023-02-11T02:58:16;2.40;99.90
12688;DHT22;6408;59.388;17.798;2023-02-11T03:00:58;2.30;99.90
12688;DHT22;6408;59.388;17.798;2023-02-11T03:03:35;2.30;99.90
12688;DHT22;6408;59.388;17.798;2023-02-11T03:06:10;2.30;99.90
12688;DHT22;6408;59.388;17.798;2023-02-11T03:08:42;2.30;99.90
12688;DHT22;6408;59.388;17.798;2023-02-11T03:11:16;2.30;99.90
12688;DHT22;6408;59.388;17.798;2023-02-11T03:13:45;2.30;99.90
12688;DHT22;6408;59.388;17.798;2023-02-11T03:16:16;2.30;99.90
12688;DHT22;6408;59.388;17.798;2023-02-11T03:18:48;2.40;99.90
12688;DHT22;6408;59.388;17.798;2023-02-11T03:21:19;2.40;99.90
12688;DHT22;6408;59.388;17.798;2023-02-11T03:23:49;2.50;99.90
12688;DHT22;6408;59.388;17.798;2023-02-11T03:26:23;2.50;99.90
12688;DHT22;6408;59.388;17.798;2023-02-11T03:28:57;2.50;99.90
12688;DHT22;6408;59.388;17.798;2023-02-11T03:31:31;2.50;99.90
12688;DHT22;6408;59.388;17.798;2023-02-11T03:34:05;2.50;99.90
12688;DHT22;6408;59.388;17.798;2023-02-11T03:36:40;2.50;99.90
12688;DHT22;6408;59.388;17.798;2023-02-11T03:39:16;2.50;99.90
12688;DHT22;6408;59.388;17.798;2023-02-11T03:41:45;2.40;99.90
12688;DHT22;6408;59.388;17.798;2023-02-11T03:44:14;2.30;99.90
12688;DHT22;6408;59.388;17.798;2023-02-11T03:46:47;2.20;99.90
12688;DHT22;6408;59.388;17.798;2023-02-11T03:49:17;2.20;99.90
12688;DHT22;6408;59.388;17.798;2023-02-11T03:51:52;2.10;99.90
12688;DHT22;6408;59.388;17.798;2023-02-11T03:54:26;2.10;99.90
12688;DHT22;6408;59.388;17.798;2023-02-11T03:56:58;2.00;99.90
12688;DHT22;6408;59.388;17.798;2023-02-11T03:59:28;1.90;99.90
12688;DHT22;6408;59.388;17.798;2023-02-11T04:02:00;1.90;99.90
12688;DHT22;6408;59.388;17.798;2023-02-11T04:04:40;1.80;99.90
12688;DHT22;6408;59.388;17.798;2023-02-11T04:07:30;1.70;99.90
12688;DHT22;6408;59.388;17.798;2023-02-11T04:10:09;1.70;99.90
12688;DHT22;6408;59.388;17.798;2023-02-11T04:12:37;1.60;99.90
12688;DHT22;6408;59.388;17.798;2023-02-11T04:15:23;1.60;99.90
12688;DHT22;6408;59.388;17.798;2023-02-11T04:17:53;1.50;99.90
12688;DHT22;6408;59.388;17.798;2023-02-11T04:20:21;1.50;99.90
12688;DHT22;6408;59.388;17.798;2023-02-11T04:22:51;1.40;99.90
12688;DHT22;6408;59.388;17.798;2023-02-11T04:25:23;1.40;99.90
12688;DHT22;6408;59.388;17.798;2023-02-11T04:28:03;1.40;99.90
12688;DHT22;6408;59.388;17.798;2023-02-11T04:30:47;1.30;99.90
12688;DHT22;6408;59.388;17.798;2023-02-11T04:33:15;1.30;99.90
12688;DHT22;6408;59.388;17.798;2023-02-11T04:35:58;1.30;99.90
12688;DHT22;6408;59.388;17.798;2023-02-11T04:38:31;1.30;99.90
12688;DHT22;6408;59.388;17.798;2023-02-11T04:41:02;1.30;99.90
12688;DHT22;6408;59.388;17.798;2023-02-11T04:43:30;1.30;99.90
12688;DHT22;6408;59.388;17.798;2023-02-11T04:45:58;1.30;99.90
12688;DHT22;6408;59.388;17.798;2023-02-11T04:48:29;1.30;99.90
12688;DHT22;6408;59.388;17.798;2023-02-11T04:50:56;1.30;99.90
12688;DHT22;6408;59.388;17.798;2023-02-11T04:53:27;1.30;99.90
12688;DHT22;6408;59.388;17.798;2023-02-11T04:55:59;1.20;99.90
12688;DHT22;6408;59.388;17.798;2023-02-11T04:58:40;1.20;99.90
12688;DHT22;6408;59.388;17.798;2023-02-11T05:01:11;1.20;99.90
12688;DHT22;6408;59.388;17.798;2023-02-11T05:03:45;1.20;99.90
12688;DHT22;6408;59.388;17.798;2023-02-11T05:06:19;1.20;99.90
12688;DHT22;6408;59.388;17.798;2023-02-11T05:08:46;1.20;99.90
12688;DHT22;6408;59.388;17.798;2023-02-11T05:11:23;1.20;99.90
12688;DHT22;6408;59.388;17.798;2023-02-11T05:13:52;1.20;99.90
12688;DHT22;6408;59.388;17.798;2023-02-11T05:16:20;1.10;99.90
12688;DHT22;6408;59.388;17.798;2023-02-11T05:18:49;1.10;99.90
12688;DHT22;6408;59.388;17.798;2023-02-11T05:21:19;1.10;99.90
12688;DHT22;6408;59.388;17.798;2023-02-11T05:23:49;1.10;99.90
12688;DHT22;6408;59.388;17.798;2023-02-11T05:26:19;1.10;99.90
12688;DHT22;6408;59.388;17.798;2023-02-11T05:28:50;1.00;99.90
12688;DHT22;6408;59.388;17.798;2023-02-11T05:31:18;0.90;99.90
12688;DHT22;6408;59.388;17.798;2023-02-11T05:33:46;0.90;99.90
12688;DHT22;6408;59.388;17.798;2023-02-11T05:36:13;0.90;99.90
12688;DHT22;6408;59.388;17.798;2023-02-11T05:38:41;0.90;99.90
12688;DHT22;6408;59.388;17.798;2023-02-11T05:41:10;0.80;99.90
12688;DHT22;6408;59.388;17.798;2023-02-11T05:43:40;0.80;99.90
12688;DHT22;6408;59.388;17.798;2023-02-11T05:46:09;0.80;99.90
12688;DHT22;6408;59.388;17.798;2023-02-11T05:48:51;0.70;99.90
12688;DHT22;6408;59.388;17.798;2023-02-11T05:51:21;0.70;99.90
12688;DHT22;6408;59.388;17.798;2023-02-11T05:53:56;0.60;99.90
12688;DHT22;6408;59.388;17.798;2023-02-11T05:56:41;0.50;99.90
12688;DHT22;6408;59.388;17.798;2023-02-11T05:59:12;0.40;99.90
12688;DHT22;6408;59.388;17.798;2023-02-11T06:01:40;0.40;99.90
12688;DHT22;6408;59.388;17.798;2023-02-11T06:04:08;0.40;99.90
12688;DHT22;6408;59.388;17.798;2023-02-11T06:06:36;0.30;99.90
12688;DHT22;6408;59.388;17.798;2023-02-11T06:09:03;0.30;99.90
12688;DHT22;6408;59.388;17.798;2023-02-11T06:11:31;0.30;99.90
12688;DHT22;6408;59.388;17.798;2023-02-11T06:14:00;0.30;99.90
12688;DHT22;6408;59.388;17.798;2023-02-11T06:16:29;0.20;99.90
12688;DHT22;6408;59.388;17.798;2023-02-11T06:18:57;0.20;99.90
12688;DHT22;6408;59.388;17.798;2023-02-11T06:21:25;0.20;99.90
12688;DHT22;6408;59.388;17.798;2023-02-11T06:23:53;0.10;99.90
12688;DHT22;6408;59.388;17.798;2023-02-11T06:26:22;0.10;99.90
12688;DHT22;6408;59.388;17.798;2023-02-11T06:28:50;0.20;99.90
12688;DHT22;6408;59.388;17.798;2023-02-11T06:31:18;0.10;99.90
12688;DHT22;6408;59.388;17.798;2023-02-11T06:33:47;0.10;99.90
12688;DHT22;6408;59.388;17.798;2023-02-11T06:36:20;0.00;99.90
12688;DHT22;6408;59.388;17.798;2023-02-11T06:38:48;-0.10;99.90
12688;DHT22;6408;59.388;17.798;2023-02-11T06:41:20;-0.20;99.90
12688;DHT22;6408;59.388;17.798;2023-02-11T06:43:48;-0.20;99.90
12688;DHT22;6408;59.388;17.798;2023-02-11T06:46:16;-0.20;99.90
12688;DHT22;6408;59.388;17.798;2023-02-11T06:48:47;-0.20;99.90
12688;DHT22;6408;59.388;17.798;2023-02-11T06:51:17;-0.20;99.90
12688;DHT22;6408;59.388;17.798;2023-02-11T06:53:48;-0.30;99.90
12688;DHT22;6408;59.388;17.798;2023-02-11T06:56:17;-0.30;99.90
12688;DHT22;6408;59.388;17.798;2023-02-11T06:58:51;-0.30;99.90
12688;DHT22;6408;59.388;17.798;2023-02-11T07:01:25;-0.40;99.90
12688;DHT22;6408;59.388;17.798;2023-02-11T07:03:57;-0.40;99.90
12688;DHT22;6408;59.388;17.798;2023-02-11T07:06:26;-0.40;99.90
12688;DHT22;6408;59.388;17.798;2023-02-11T07:08:58;-0.40;99.90
12688;DHT22;6408;59.388;17.798;2023-02-11T07:11:39;-0.40;99.90
12688;DHT22;6408;59.388;17.798;2023-02-11T07:14:07;-0.30;99.90
12688;DHT22;6408;59.388;17.798;2023-02-11T07:16:35;-0.20;99.90
12688;DHT22;6408;59.388;17.798;2023-02-11T07:19:05;-0.30;99.90
12688;DHT22;6408;59.388;17.798;2023-02-11T07:21:36;-0.20;99.90
12688;DHT22;6408;59.388;17.798;2023-02-11T07:24:10;-0.20;99.90
12688;DHT22;6408;59.388;17.798;2023-02-11T07:26:44;-0.20;99.90
12688;DHT22;6408;59.388;17.798;2023-02-11T07:29:12;-0.40;99.90
12688;DHT22;6408;59.388;17.798;2023-02-11T07:31:43;-0.30;99.90
12688;DHT22;6408;59.388;17.798;2023-02-11T07:34:12;-0.20;99.90
12688;DHT22;6408;59.388;17.798;2023-02-11T07:36:40;-0.20;99.90
12688;DHT22;6408;59.388;17.798;2023-02-11T07:39:08;-0.10;99.90
12688;DHT22;6408;59.388;17.798;2023-02-11T07:41:36;0.00;99.90
12688;DHT22;6408;59.388;17.798;2023-02-11T07:44:05;0.10;99.90
12688;DHT22;6408;59.388;17.798;2023-02-11T07:46:33;0.10;99.90
12688;DHT22;6408;59.388;17.798;2023-02-11T07:49:01;0.20;99.90
12688;DHT22;6408;59.388;17.798;2023-02-11T07:51:31;0.20;99.90
12688;DHT22;6408;59.388;17.798;2023-02-11T07:53:59;0.30;99.90
12688;DHT22;6408;59.388;17.798;2023-02-11T07:56:36;0.30;99.90
12688;DHT22;6408;59.388;17.798;2023-02-11T07:59:04;0.30;99.90
12688;DHT22;6408;59.388;17.798;2023-02-11T08:01:32;0.20;99.90
12688;DHT22;6408;59.388;17.798;2023-02-11T08:04:01;0.40;99.90
12688;DHT22;6408;59.388;17.798;2023-02-11T08:06:33;0.50;99.90
12688;DHT22;6408;59.388;17.798;2023-02-11T08:09:19;0.50;99.90
12688;DHT22;6408;59.388;17.798;2023-02-11T08:11:47;0.50;99.90
12688;DHT22;6408;59.388;17.798;2023-02-11T08:14:15;0.60;99.90
12688;DHT22;6408;59.388;17.798;2023-02-11T08:16:48;0.60;99.90
12688;DHT22;6408;59.388;17.798;2023-02-11T08:19:17;0.50;99.90
12688;DHT22;6408;59.388;17.798;2023-02-11T08:21:47;0.40;99.90
12688;DHT22;6408;59.388;17.798;2023-02-11T08:24:15;0.50;99.90
12688;DHT22;6408;59.388;17.798;2023-02-11T08:26:44;0.40;99.90
12688;DHT22;6408;59.388;17.798;2023-02-11T08:29:14;0.40;99.90
12688;DHT22;6408;59.388;17.798;2023-02-11T08:31:46;0.40;99.90
12688;DHT22;6408;59.388;17.798;2023-02-11T08:34:20;0.50;99.90
12688;DHT22;6408;59.388;17.798;2023-02-11T08:36:52;0.50;99.90
12688;DHT22;6408;59.388;17.798;2023-02-11T08:39:25;0.50;99.90
12688;DHT22;6408;59.388;17.798;2023-02-11T08:42:05;0.50;99.90
12688;DHT22;6408;59.388;17.798;2023-02-11T08:44:35;0.30;99.90
12688;DHT22;6408;59.388;17.798;2023-02-11T08:47:14;0.30;99.90
12688;DHT22;6408;59.388;17.798;2023-02-11T08:49:44;0.20;99.90
12688;DHT22;6408;59.388;17.798;2023-02-11T08:52:16;0.10;99.90
12688;DHT22;6408;59.388;17.798;2023-02-11T08:54:44;0.20;99.90
12688;DHT22;6408;59.388;17.798;2023-02-11T08:57:13;0.10;99.90
12688;DHT22;6408;59.388;17.798;2023-02-11T08:59:45;0.10;99.90
12688;DHT22;6408;59.388;17.798;2023-02-11T09:02:14;0.20;99.90
12688;DHT22;6408;59.388;17.798;2023-02-11T09:04:54;0.20;99.90
12688;DHT22;6408;59.388;17.798;2023-02-11T09:07:43;0.20;99.90
12688;DHT22;6408;59.388;17.798;2023-02-11T09:10:21;0.40;99.90
12688;DHT22;6408;59.388;17.798;2023-02-11T09:12:49;0.60;99.90
12688;DHT22;6408;59.388;17.798;2023-02-11T09:15:20;0.60;99.90
12688;DHT22;6408;59.388;17.798;2023-02-11T09:17:51;0.70;99.90
12688;DHT22;6408;59.388;17.798;2023-02-11T09:20:27;0.80;99.90
12688;DHT22;6408;59.388;17.798;2023-02-11T09:22:59;0.70;99.90
12688;DHT22;6408;59.388;17.798;2023-02-11T09:25:31;0.80;99.90
12688;DHT22;6408;59.388;17.798;2023-02-11T09:27:58;0.80;99.90
12688;DHT22;6408;59.388;17.798;2023-02-11T09:30:26;0.70;99.90
12688;DHT22;6408;59.388;17.798;2023-02-11T09:32:55;0.60;99.90
12688;DHT22;6408;59.388;17.798;2023-02-11T09:35:25;0.60;99.90
12688;DHT22;6408;59.388;17.798;2023-02-11T09:37:54;0.60;99.90
12688;DHT22;6408;59.388;17.798;2023-02-11T09:40:24;0.50;99.90
12688;DHT22;6408;59.388;17.798;2023-02-11T09:42:59;0.50;99.90
12688;DHT22;6408;59.388;17.798;2023-02-11T09:45:28;0.40;99.90
12688;DHT22;6408;59.388;17.798;2023-02-11T09:47:59;0.50;99.90
12688;DHT22;6408;59.388;17.798;2023-02-11T09:50:32;0.50;99.90
12688;DHT22;6408;59.388;17.798;2023-02-11T09:53:03;0.50;99.90
12688;DHT22;6408;59.388;17.798;2023-02-11T09:55:41;0.40;99.90
12688;DHT22;6408;59.388;17.798;2023-02-11T09:58:21;0.50;99.90
12688;DHT22;6408;59.388;17.798;2023-02-11T10:00:59;0.50;99.90
12688;DHT22;6408;59.388;17.798;2023-02-11T10:03:42;0.40;99.90
12688;DHT22;6408;59.388;17.798;2023-02-11T10:06:35;0.40;99.90
12688;DHT22;6408;59.388;17.798;2023-02-11T10:09:11;0.30;99.90
12688;DHT22;6408;59.388;17.798;2023-02-11T10:11:49;0.20;99.90
12688;DHT22;6408;59.388;17.798;2023-02-11T10:14:28;0.20;99.90
12688;DHT22;6408;59.388;17.798;2023-02-11T10:17:08;0.20;99.90
12688;DHT22;6408;59.388;17.798;2023-02-11T10:19:49;0.20;99.90
12688;DHT22;6408;59.388;17.798;2023-02-11T10:22:24;0.30;99.90
12688;DHT22;6408;59.388;17.798;2023-02-11T10:24:55;0.30;99.90
12688;DHT22;6408;59.388;17.798;2023-02-11T10:27:31;0.40;99.90
12688;DHT22;6408;59.388;17.798;2023-02-11T10:30:02;0.30;99.90
12688;DHT22;6408;59.388;17.798;2023-02-11T10:32:36;0.40;99.90
12688;DHT22;6408;59.388;17.798;2023-02-11T10:35:13;0.40;99.90
12688;DHT22;6408;59.388;17.798;2023-02-11T10:37:50;0.40;99.90
12688;DHT22;6408;59.388;17.798;2023-02-11T10:40:20;0.40;99.90
12688;DHT22;6408;59.388;17.798;2023-02-11T10:42:52;0.40;99.90
12688;DHT22;6408;59.388;17.798;2023-02-11T10:45:26;0.50;99.90
12688;DHT22;6408;59.388;17.798;2023-02-11T10:47:57;0.60;99.90
12688;DHT22;6408;59.388;17.798;2023-02-11T10:50:27;0.80;99.90
12688;DHT22;6408;59.388;17.798;2023-02-11T10:53:11;0.90;99.90
12688;DHT22;6408;59.388;17.798;2023-02-11T10:55:49;0.70;99.90
12688;DHT22;6408;59.388;17.798;2023-02-11T10:58:39;0.90;99.90
12688;DHT22;6408;59.388;17.798;2023-02-11T11:01:08;0.80;99.90
12688;DHT22;6408;59.388;17.798;2023-02-11T11:03:58;0.80;99.90
12688;DHT22;6408;59.388;17.798;2023-02-11T11:06:33;0.70;99.90
12688;DHT22;6408;59.388;17.798;2023-02-11T11:09:26;0.50;99.90
12688;DHT22;6408;59.388;17.798;2023-02-11T11:12:05;0.50;99.90
12688;DHT22;6408;59.388;17.798;2023-02-11T11:14:36;0.40;99.90
12688;DHT22;6408;59.388;17.798;2023-02-11T11:17:14;0.50;99.90
12688;DHT22;6408;59.388;17.798;2023-02-11T11:19:44;0.60;99.90
12688;DHT22;6408;59.388;17.798;2023-02-11T11:22:19;0.50;99.90
12688;DHT22;6408;59.388;17.798;2023-02-11T11:24:48;0.50;99.90
12688;DHT22;6408;59.388;17.798;2023-02-11T11:27:22;0.40;99.90
12688;DHT22;6408;59.388;17.798;2023-02-11T11:29:54;0.40;99.90
12688;DHT22;6408;59.388;17.798;2023-02-11T11:32:24;0.40;99.90
12688;DHT22;6408;59.388;17.798;2023-02-11T11:34:54;0.40;99.90
12688;DHT22;6408;59.388;17.798;2023-02-11T11:37:26;0.60;99.90
12688;DHT22;6408;59.388;17.798;2023-02-11T11:39:56;1.40;99.90
12688;DHT22;6408;59.388;17.798;2023-02-11T11:42:27;2.00;99.90
12688;DHT22;6408;59.388;17.798;2023-02-11T11:44:59;1.80;99.90
12688;DHT22;6408;59.388;17.798;2023-02-11T11:47:35;1.70;99.90
12688;DHT22;6408;59.388;17.798;2023-02-11T11:50:18;2.00;99.90
12688;DHT22;6408;59.388;17.798;2023-02-11T11:52:53;1.70;99.90
12688;DHT22;6408;59.388;17.798;2023-02-11T11:55:29;1.90;99.90
12688;DHT22;6408;59.388;17.798;2023-02-11T11:57:57;1.70;99.90
12688;DHT22;6408;59.388;17.798;2023-02-11T12:00:35;1.80;99.90
12688;DHT22;6408;59.388;17.798;2023-02-11T12:06:23;1.60;99.90
12688;DHT22;6408;59.388;17.798;2023-02-11T12:09:01;1.50;99.90
12688;DHT22;6408;59.388;17.798;2023-02-11T12:11:37;1.30;99.90
12688;DHT22;6408;59.388;17.798;2023-02-11T12:14:26;1.20;99.90
12688;DHT22;6408;59.388;17.798;2023-02-11T12:17:17;1.20;99.90
12688;DHT22;6408;59.388;17.798;2023-02-11T12:20:18;1.20;99.90
12688;DHT22;6408;59.388;17.798;2023-02-11T12:22:59;1.30;99.90
12688;DHT22;6408;59.388;17.798;2023-02-11T12:25:34;1.30;99.90
12688;DHT22;6408;59.388;17.798;2023-02-11T12:28:18;1.20;99.90
12688;DHT22;6408;59.388;17.798;2023-02-11T12:31:05;1.20;99.90
12688;DHT22;6408;59.388;17.798;2023-02-11T12:33:51;1.10;99.90
12688;DHT22;6408;59.388;17.798;2023-02-11T12:36:31;1.00;99.90
12688;DHT22;6408;59.388;17.798;2023-02-11T12:39:12;0.90;99.90
12688;DHT22;6408;59.388;17.798;2023-02-11T12:41:56;0.70;99.90
12688;DHT22;6408;59.388;17.798;2023-02-11T12:45:01;0.70;99.90
12688;DHT22;6408;59.388;17.798;2023-02-11T12:47:40;0.80;99.90
12688;DHT22;6408;59.388;17.798;2023-02-11T12:50:17;1.00;99.90
12688;DHT22;6408;59.388;17.798;2023-02-11T12:53:06;1.20;99.90
12688;DHT22;6408;59.388;17.798;2023-02-11T12:55:41;1.30;99.90
12688;DHT22;6408;59.388;17.798;2023-02-11T12:58:15;1.40;99.90
12688;DHT22;6408;59.388;17.798;2023-02-11T13:00:48;1.50;99.90
12688;DHT22;6408;59.388;17.798;2023-02-11T13:03:21;1.80;99.90
12688;DHT22;6408;59.388;17.798;2023-02-11T13:05:55;2.00;99.90
12688;DHT22;6408;59.388;17.798;2023-02-11T13:08:29;2.30;99.90
12688;DHT22;6408;59.388;17.798;2023-02-11T13:10:59;2.00;99.90
12688;DHT22;6408;59.388;17.798;2023-02-11T13:13:30;2.10;99.90
12688;DHT22;6408;59.388;17.798;2023-02-11T13:16:01;2.20;99.90
12688;DHT22;6408;59.388;17.798;2023-02-11T13:18:46;2.50;99.90
12688;DHT22;6408;59.388;17.798;2023-02-11T13:21:28;2.70;99.90
12688;DHT22;6408;59.388;17.798;2023-02-11T13:24:04;3.10;99.90
12688;DHT22;6408;59.388;17.798;2023-02-11T13:26:40;3.10;99.90
12688;DHT22;6408;59.388;17.798;2023-02-11T13:29:18;3.70;99.90
12688;DHT22;6408;59.388;17.798;2023-02-11T13:32:04;4.30;99.90
12688;DHT22;6408;59.388;17.798;2023-02-11T13:34:55;4.60;99.90
12688;DHT22;6408;59.388;17.798;2023-02-11T13:37:48;4.90;99.90
12688;DHT22;6408;59.388;17.798;2023-02-11T13:43:06;4.40;99.90
12688;DHT22;6408;59.388;17.798;2023-02-11T13:45:57;4.00;99.90
12688;DHT22;6408;59.388;17.798;2023-02-11T13:48:47;3.80;99.90
12688;DHT22;6408;59.388;17.798;2023-02-11T13:51:32;3.50;99.90
12688;DHT22;6408;59.388;17.798;2023-02-11T13:54:03;3.50;99.90
12688;DHT22;6408;59.388;17.798;2023-02-11T13:56:34;3.30;99.90
12688;DHT22;6408;59.388;17.798;2023-02-11T13:59:04;2.70;99.90
12688;DHT22;6408;59.388;17.798;2023-02-11T14:01:40;1.90;99.90
12688;DHT22;6408;59.388;17.798;2023-02-11T14:04:22;1.50;99.90
12688;DHT22;6408;59.388;17.798;2023-02-11T14:07:28;1.10;99.90
12688;DHT22;6408;59.388;17.798;2023-02-11T14:10:51;0.70;99.90
12688;DHT22;6408;59.388;17.798;2023-02-11T14:13:23;0.60;99.90
12688;DHT22;6408;59.388;17.798;2023-02-11T14:16:03;0.50;99.90
12688;DHT22;6408;59.388;17.798;2023-02-11T14:21:22;0.30;99.90
12688;DHT22;6408;59.388;17.798;2023-02-11T14:23:50;0.30;99.90
12688;DHT22;6408;59.388;17.798;2023-02-11T14:26:33;0.20;99.90
12688;DHT22;6408;59.388;17.798;2023-02-11T14:29:11;0.20;99.90
12688;DHT22;6408;59.388;17.798;2023-02-11T14:31:44;0.10;99.90
12688;DHT22;6408;59.388;17.798;2023-02-11T14:34:27;0.20;99.90
12688;DHT22;6408;59.388;17.798;2023-02-11T14:37:09;0.10;99.90
12688;DHT22;6408;59.388;17.798;2023-02-11T14:39:53;0.10;99.90
12688;DHT22;6408;59.388;17.798;2023-02-11T14:42:26;0.10;99.90
12688;DHT22;6408;59.388;17.798;2023-02-11T14:44:58;0.10;99.90
12688;DHT22;6408;59.388;17.798;2023-02-11T14:47:39;0.00;99.90
12688;DHT22;6408;59.388;17.798;2023-02-11T14:50:15;0.10;99.90
12688;DHT22;6408;59.388;17.798;2023-02-11T14:52:44;0.00;99.90
12688;DHT22;6408;59.388;17.798;2023-02-11T14:55:17;0.00;99.90
12688;DHT22;6408;59.388;17.798;2023-02-11T14:58:04;0.00;99.90
12688;DHT22;6408;59.388;17.798;2023-02-11T15:00:32;0.00;99.90
12688;DHT22;6408;59.388;17.798;2023-02-11T15:03:00;0.00;99.90
12688;DHT22;6408;59.388;17.798;2023-02-11T15:05:28;-0.10;99.90
12688;DHT22;6408;59.388;17.798;2023-02-11T15:07:59;-0.20;99.90
12688;DHT22;6408;59.388;17.798;2023-02-11T15:10:40;-0.20;99.90
12688;DHT22;6408;59.388;17.798;2023-02-11T15:13:20;-0.30;99.90
12688;DHT22;6408;59.388;17.798;2023-02-11T15:15:54;-0.30;99.90
12688;DHT22;6408;59.388;17.798;2023-02-11T15:18:32;-0.40;99.90
12688;DHT22;6408;59.388;17.798;2023-02-11T15:21:02;-0.50;99.90
12688;DHT22;6408;59.388;17.798;2023-02-11T15:23:31;-0.50;99.90
12688;DHT22;6408;59.388;17.798;2023-02-11T15:25:59;-0.70;99.90
12688;DHT22;6408;59.388;17.798;2023-02-11T15:28:35;-0.70;99.90
12688;DHT22;6408;59.388;17.798;2023-02-11T15:31:10;-0.80;99.90
12688;DHT22;6408;59.388;17.798;2023-02-11T15:33:40;-0.80;99.90
12688;DHT22;6408;59.388;17.798;2023-02-11T15:36:10;-0.80;99.90
12688;DHT22;6408;59.388;17.798;2023-02-11T15:38:38;-0.90;99.90
12688;DHT22;6408;59.388;17.798;2023-02-11T15:41:32;-1.00;99.90
12688;DHT22;6408;59.388;17.798;2023-02-11T15:44:02;-1.00;99.90
12688;DHT22;6408;59.388;17.798;2023-02-11T15:46:35;-1.00;99.90
12688;DHT22;6408;59.388;17.798;2023-02-11T15:49:05;-1.00;99.90
12688;DHT22;6408;59.388;17.798;2023-02-11T15:51:35;-1.00;99.90
12688;DHT22;6408;59.388;17.798;2023-02-11T15:54:14;-1.00;99.90
12688;DHT22;6408;59.388;17.798;2023-02-11T15:56:45;-1.00;99.90
12688;DHT22;6408;59.388;17.798;2023-02-11T15:59:19;-1.00;99.90
12688;DHT22;6408;59.388;17.798;2023-02-11T16:01:50;-1.00;99.90
12688;DHT22;6408;59.388;17.798;2023-02-11T16:04:20;-1.00;99.90
12688;DHT22;6408;59.388;17.798;2023-02-11T16:06:49;-1.00;99.90
12688;DHT22;6408;59.388;17.798;2023-02-11T16:09:25;-1.10;99.90
12688;DHT22;6408;59.388;17.798;2023-02-11T16:12:00;-1.10;99.90
12688;DHT22;6408;59.388;17.798;2023-02-11T16:14:34;-1.10;99.90
12688;DHT22;6408;59.388;17.798;2023-02-11T16:17:06;-1.20;99.90
12688;DHT22;6408;59.388;17.798;2023-02-11T16:19:52;-1.20;99.90
12688;DHT22;6408;59.388;17.798;2023-02-11T16:22:25;-1.10;99.90
12688;DHT22;6408;59.388;17.798;2023-02-11T16:24:57;-1.20;99.90
12688;DHT22;6408;59.388;17.798;2023-02-11T16:27:33;-1.20;99.90
12688;DHT22;6408;59.388;17.798;2023-02-11T16:30:06;-1.30;99.90
12688;DHT22;6408;59.388;17.798;2023-02-11T16:32:53;-1.30;99.90
12688;DHT22;6408;59.388;17.798;2023-02-11T16:35:21;-1.30;99.90
12688;DHT22;6408;59.388;17.798;2023-02-11T16:37:49;-1.40;99.90
12688;DHT22;6408;59.388;17.798;2023-02-11T16:40:17;-1.40;99.90
12688;DHT22;6408;59.388;17.798;2023-02-11T16:42:44;-1.40;99.90